This is the latest recevied weather packets stored in our database for station/object N5GMJ. If no packets are shown the sender has not sent any weather packets the latest 1 day(s).
| Time | Temp. | Humidity | Pressure | Rain* | Wind** | Luminosity | Snow |
|---|---|---|---|---|---|---|---|
| 1778001639 | 29.44° C | 61% | 1006.2 hPa | 0 mm | 0.45 m/s, 125° | - | - |
| 1778001333 | 28.89° C | 59% | 1006.1 hPa | 0 mm | 1.79 m/s, 257° | - | - |
| 1778001030 | 29.44° C | 61% | 1006 hPa | 0 mm | 1.34 m/s, 285° | - | - |
| 1778000727 | 29.44° C | 61% | 1005.9 hPa | 0 mm | 0.45 m/s, 300° | - | - |
| 1778000424 | 28.89° C | 65% | 1006.3 hPa | 0 mm | 0 m/s | - | - |
| 1778000119 | 28.89° C | 63% | 1006.2 hPa | 0 mm | 0.45 m/s, 285° | - | - |
| 1777999815 | 28.89° C | 64% | 1006.2 hPa | 0 mm | 0.45 m/s, 146° | - | - |
| 1777999511 | 28.89° C | 64% | 1006.1 hPa | 0 mm | 0.45 m/s, 354° | - | - |
| 1777999209 | 28.33° C | 65% | 1006.3 hPa | 0 mm | 0.45 m/s, 292° | - | - |
| 1777998907 | 28.33° C | 66% | 1006.2 hPa | 0 mm | 0.89 m/s, 224° | - | - |
| 1777998603 | 27.78° C | 66% | 1006.1 hPa | 0 mm | 0.45 m/s, 56° | - | - |
| 1777998297 | 27.78° C | 67% | 1006.2 hPa | 0 mm | 0.45 m/s, 132° | - | - |
| 1777997994 | 27.22° C | 70% | 1006.3 hPa | 0 mm | 0.45 m/s, 127° | - | - |
| 1777997690 | 26.67° C | 70% | 1006.1 hPa | 0 mm | 0.45 m/s, 358° | - | - |
| 1777997388 | 26.67° C | 72% | 1006.1 hPa | 0 mm | 0.45 m/s, 76° | - | - |
| 1777997086 | 26.67° C | 70% | 1006 hPa | 0 mm | 0.89 m/s, 170° | - | - |
| 1777996782 | 27.22° C | 70% | 1005.8 hPa | 0 mm | 0.89 m/s, 167° | - | - |
| 1777996479 | 26.67° C | 70% | 1005.8 hPa | 0 mm | 1.79 m/s, 248° | - | - |
| 1777996175 | 26.11° C | 73% | 1005.8 hPa | 0 mm | 0.45 m/s, 203° | - | - |
| 1777995872 | 26.11° C | 73% | 1005.9 hPa | 0 mm | 1.34 m/s, 179° | - | - |
| 1777995568 | 25.56° C | 75% | 1005.7 hPa | 0 mm | 0 m/s | - | - |
| 1777995266 | 25° C | 76% | 1005.7 hPa | 0 mm | 0.89 m/s, 304° | - | - |
| 1777994962 | 25° C | 76% | 1005.9 hPa | 0 mm | 0.89 m/s, 161° | - | - |
| 1777994660 | 24.44° C | 78% | 1005.8 hPa | 0 mm | 0.45 m/s, 109° | - | - |
| 1777994359 | 24.44° C | 77% | 1005.8 hPa | 0 mm | 0.89 m/s, 10° | - | - |
* Rain latest hour (hover to see other rain measurements)
** Current wind speed in m/s (hover to see current wind gust speed)